Time;durP1;ratioP1;P1;durP2;ratioP2;P2;SDS_P1;SDS_P2;PMS_P1;PMS_P2;Temp;Humidity;BMP_temperature;BMP_pressure;BME280_temperature;BME280_humidity;BME280_pressure;Samples;Min_cycle;Max_cycle;Signal;HPM_P1;HPM_P2
2021/08/28 00:01:15;;;;;;;1.70;1.40;;;22.20;64.80;;;;;;3144959;28;20498;-86
2021/08/28 00:02:48;;;;;;;1.40;1.30;;;22.20;64.80;;;;;;3146589;28;20056;-87
2021/08/28 00:04:20;;;;;;;1.48;1.38;;;22.20;64.80;;;;;;3146474;28;20454;-85
2021/08/28 00:05:52;;;;;;;1.38;1.27;;;22.20;64.80;;;;;;3145338;28;20115;-85
2021/08/28 00:07:23;;;;;;;1.20;1.10;;;22.10;64.80;;;;;;3146560;28;20071;-86
2021/08/28 00:08:55;;;;;;;1.52;1.35;;;22.20;64.80;;;;;;3146301;28;20095;-85
2021/08/28 00:10:27;;;;;;;1.50;1.40;;;22.10;64.80;;;;;;3145487;28;20044;-86
2021/08/28 00:11:59;;;;;;;1.50;1.40;;;22.10;64.80;;;;;;3146936;28;20044;-85
2021/08/28 00:13:31;;;;;;;1.70;1.60;;;22.10;64.80;;;;;;3146623;28;20549;-85
2021/08/28 00:15:03;;;;;;;1.50;1.40;;;22.20;64.80;;;;;;3145341;28;20052;-87
2021/08/28 00:16:34;;;;;;;1.50;1.40;;;22.10;64.80;;;;;;3145797;28;20106;-86
2021/08/28 00:18:08;;;;;;;1.48;1.35;;;22.10;64.80;;;;;;3146501;28;20079;-86
2021/08/28 00:19:40;;;;;;;1.30;1.20;;;22.10;65.50;;;;;;3144516;28;20091;-86
2021/08/28 00:21:12;;;;;;;1.48;1.38;;;22.20;64.90;;;;;;3145738;28;20052;-85
2021/08/28 00:22:44;;;;;;;1.40;1.30;;;22.10;64.80;;;;;;3148060;28;20082;-86
2021/08/28 00:24:15;;;;;;;1.60;1.35;;;22.10;64.80;;;;;;3147660;28;20357;-86
2021/08/28 00:25:47;;;;;;;1.40;1.30;;;22.10;64.80;;;;;;3146501;28;20503;-86
2021/08/28 00:27:19;;;;;;;1.30;1.15;;;22.10;64.80;;;;;;3146669;28;20056;-86
2021/08/28 00:28:56;;;;;;;2.00;1.45;;;22.10;64.80;;;;;;3146750;28;20599;-85
2021/08/28 00:30:28;;;;;;;1.58;1.30;;;22.10;64.80;;;;;;3145312;28;20051;-85
2021/08/28 00:31:59;;;;;;;1.70;1.50;;;22.10;64.80;;;;;;3146382;28;20052;-86
2021/08/28 00:33:33;;;;;;;1.60;1.30;;;22.10;64.80;;;;;;3146650;28;20052;-85
2021/08/28 00:35:07;;;;;;;1.98;1.40;;;22.10;65.40;;;;;;3145686;28;20049;-86
2021/08/28 00:36:38;;;;;;;1.20;1.10;;;22.10;64.80;;;;;;3146227;28;20564;-85
2021/08/28 00:38:10;;;;;;;1.38;1.27;;;22.10;64.80;;;;;;3145477;28;20487;-86
2021/08/28 00:39:42;;;;;;;1.30;1.20;;;22.10;64.80;;;;;;3145701;28;20067;-85
2021/08/28 00:41:14;;;;;;;1.40;1.30;;;22.10;64.80;;;;;;3144489;28;20040;-87
2021/08/28 00:42:47;;;;;;;1.45;1.35;;;22.10;64.80;;;;;;3145750;28;20099;-86
2021/08/28 00:44:18;;;;;;;;;;;22.00;64.80;;;;;;3146045;28;20593;-86
2021/08/28 00:45:50;;;;;;;1.38;1.27;;;22.10;64.80;;;;;;3143221;28;19921;-86
2021/08/28 00:47:21;;;;;;;1.40;1.30;;;22.10;64.80;;;;;;3145797;28;20514;-86
2021/08/28 00:48:54;;;;;;;1.48;1.38;;;22.00;64.80;;;;;;3145343;28;20051;-86
2021/08/28 00:50:26;;;;;;;1.90;1.65;;;22.00;64.80;;;;;;3144610;28;20045;-86
2021/08/28 00:51:58;;;;;;;1.48;1.38;;;22.10;64.80;;;;;;3145406;28;20052;-86
2021/08/28 00:53:31;;;;;;;1.40;1.30;;;22.00;64.80;;;;;;3145692;28;20458;-86
2021/08/28 00:55:03;;;;;;;1.40;1.30;;;22.00;65.50;;;;;;3145057;28;20495;-86
2021/08/28 00:56:35;;;;;;;1.75;1.60;;;22.00;64.80;;;;;;3145258;28;20052;-86
2021/08/28 00:58:06;;;;;;;1.38;1.27;;;22.00;64.80;;;;;;3145502;28;20049;-86
2021/08/28 00:59:38;;;;;;;1.38;1.27;;;22.00;64.80;;;;;;3145089;28;20040;-86
2021/08/28 01:01:12;;;;;;;1.40;1.30;;;22.00;64.80;;;;;;3143581;28;20052;-86
2021/08/28 01:02:45;;;;;;;1.30;1.20;;;22.00;64.80;;;;;;3145557;28;20466;-86
2021/08/28 01:04:19;;;;;;;1.83;1.40;;;22.00;64.80;;;;;;3145665;28;20052;-86
2021/08/28 01:05:55;;;;;;;1.52;1.42;;;22.00;64.80;;;;;;3144764;28;20048;-87
2021/08/28 01:07:31;;;;;;;1.50;1.30;;;22.00;64.90;;;;;;3145248;28;20044;-87
2021/08/28 01:09:04;;;;;;;1.60;1.50;;;22.00;64.80;;;;;;3145144;28;20114;-87
2021/08/28 01:10:38;;;;;;;1.52;1.42;;;22.00;64.90;;;;;;3144780;28;20048;-86
2021/08/28 01:12:13;;;;;;;1.60;1.50;;;22.00;64.80;;;;;;3145621;28;20098;-86
2021/08/28 01:13:45;;;;;;;1.60;1.50;;;22.00;64.90;;;;;;3145316;28;20096;-86
2021/08/28 01:15:21;;;;;;;1.52;1.42;;;22.00;64.90;;;;;;3144006;28;20041;-86
2021/08/28 01:16:53;;;;;;;1.45;1.35;;;22.00;64.80;;;;;;3145535;28;20056;-86
2021/08/28 01:18:25;;;;;;;1.27;1.17;;;22.00;64.80;;;;;;3145008;28;20049;-87
2021/08/28 01:20:04;;;;;;;1.73;1.23;;;22.00;64.80;;;;;;3144379;28;20427;-86
2021/08/28 01:21:37;;;;;;;1.30;1.20;;;22.00;64.80;;;;;;3144793;28;20476;-86
2021/08/28 01:23:08;;;;;;;1.58;1.33;;;22.00;64.80;;;;;;3145451;28;20067;-86
2021/08/28 01:24:41;;;;;;;1.63;1.52;;;22.00;65.50;;;;;;3145381;28;20411;-86
2021/08/28 01:26:15;;;;;;;1.52;1.20;;;22.00;64.90;;;;;;3143810;28;20102;-86
2021/08/28 01:27:50;;;;;;;1.33;1.23;;;22.00;64.90;;;;;;3145180;28;20415;-86
2021/08/28 01:29:24;;;;;;;1.40;1.30;;;21.90;64.80;;;;;;3145006;28;20580;-86
2021/08/28 01:30:55;;;;;;;1.50;1.33;;;22.00;64.90;;;;;;3143010;28;20044;-86
2021/08/28 01:32:27;;;;;;;1.50;1.40;;;21.90;64.80;;;;;;3145181;28;20048;-87
2021/08/28 01:33:59;;;;;;;1.45;1.35;;;21.90;64.80;;;;;;3145244;28;20056;-86
2021/08/28 01:35:31;;;;;;;1.50;1.40;;;22.00;64.90;;;;;;3144538;28;20045;-87
2021/08/28 01:37:03;;;;;;;1.20;1.10;;;21.90;64.80;;;;;;3145084;28;20045;-87
2021/08/28 01:38:35;;;;;;;1.40;1.30;;;21.90;64.80;;;;;;3144904;28;20110;-86
2021/08/28 01:40:08;;;;;;;1.42;1.30;;;21.90;64.80;;;;;;3144488;28;20052;-86
2021/08/28 01:41:40;;;;;;;;;;;21.90;64.80;;;;;;3145727;28;20048;-85
2021/08/28 01:43:12;;;;;;;1.40;1.30;;;21.90;64.80;;;;;;3144528;28;19925;-86
2021/08/28 01:44:46;;;;;;;1.67;1.50;;;21.90;64.80;;;;;;3144960;28;20052;-86
2021/08/28 01:46:18;;;;;;;1.38;1.25;;;21.90;64.80;;;;;;3143627;28;20114;-86
2021/08/28 01:47:50;;;;;;;1.40;1.30;;;21.90;64.80;;;;;;3145043;28;20056;-87
2021/08/28 01:49:22;;;;;;;1.20;1.10;;;21.90;64.90;;;;;;3144378;28;20403;-86
2021/08/28 01:50:53;;;;;;;1.30;1.20;;;21.90;64.80;;;;;;3143501;28;20059;-86
2021/08/28 01:52:25;;;;;;;1.20;1.10;;;21.90;64.80;;;;;;3144908;28;20298;-87
2021/08/28 01:53:57;;;;;;;1.50;1.30;;;21.90;64.80;;;;;;3145178;28;20045;-86
2021/08/28 01:55:29;;;;;;;1.58;1.48;;;21.90;64.80;;;;;;3144130;28;20044;-87
2021/08/28 01:57:02;;;;;;;1.50;1.40;;;21.90;64.90;;;;;;3145241;28;20103;-86
2021/08/28 01:58:33;;;;;;;1.75;1.50;;;21.90;64.80;;;;;;3144790;28;20057;-87
2021/08/28 02:00:08;;;;;;;1.50;1.38;;;21.90;64.80;;;;;;3143446;28;20048;-87
2021/08/28 02:01:39;;;;;;;1.42;1.33;;;21.90;64.80;;;;;;3144715;28;20053;-87
2021/08/28 02:03:11;;;;;;;1.52;1.20;;;21.90;64.80;;;;;;3145178;28;20052;-87
2021/08/28 02:04:44;;;;;;;1.40;1.30;;;21.90;64.90;;;;;;3145258;28;20056;-87
2021/08/28 02:06:18;;;;;;;1.30;1.20;;;21.90;64.90;;;;;;3144092;28;20498;-87
2021/08/28 02:07:51;;;;;;;1.73;1.38;;;21.80;64.80;;;;;;3144735;28;20041;-87
2021/08/28 02:09:27;;;;;;;;;;;21.90;64.90;;;;;;3145138;28;20057;-87
2021/08/28 02:10:59;;;;;;;1.40;1.30;;;21.80;64.80;;;;;;3144278;28;19920;-87
2021/08/28 02:12:35;;;;;;;1.40;1.30;;;21.90;64.80;;;;;;3144839;28;20052;-87
2021/08/28 02:14:11;;;;;;;1.63;1.30;;;21.80;64.80;;;;;;3144755;28;20106;-87
2021/08/28 02:15:47;;;;;;;1.20;1.10;;;21.80;64.80;;;;;;3143367;28;20060;-87
2021/08/28 02:17:19;;;;;;;1.30;1.20;;;21.90;64.90;;;;;;3144998;28;20101;-87
2021/08/28 02:18:52;;;;;;;1.45;1.30;;;21.80;64.80;;;;;;3144456;28;20104;-87
2021/08/28 02:20:25;;;;;;;1.30;1.20;;;21.80;64.80;;;;;;3143936;28;20051;-86
2021/08/28 02:21:58;;;;;;;1.27;1.17;;;21.80;64.80;;;;;;3144566;28;20830;-87
2021/08/28 02:23:29;;;;;;;;;;;21.80;64.80;;;;;;3145342;28;20052;-87
2021/08/28 02:25:05;;;;;;;1.30;1.20;;;21.80;64.80;;;;;;3144132;28;20379;-87
2021/08/28 02:26:39;;;;;;;1.45;1.35;;;21.80;64.80;;;;;;3144746;28;20052;-87
2021/08/28 02:28:13;;;;;;;1.40;1.30;;;21.80;64.80;;;;;;3144308;28;20491;-87
2021/08/28 02:29:48;;;;;;;1.48;1.38;;;21.80;64.80;;;;;;3145107;28;20240;-87
2021/08/28 02:31:22;;;;;;;1.50;1.40;;;21.80;64.90;;;;;;3143275;28;20135;-87
2021/08/28 02:32:54;;;;;;;1.60;1.50;;;21.80;64.90;;;;;;3144484;28;20098;-87
2021/08/28 02:34:27;;;;;;;1.50;1.40;;;21.80;64.90;;;;;;3144895;28;20139;-87
2021/08/28 02:35:59;;;;;;;;;;;21.80;64.90;;;;;;3144471;28;20059;-87
2021/08/28 02:37:31;;;;;;;1.77;1.30;;;21.80;64.90;;;;;;3144647;28;19969;-87
2021/08/28 02:39:03;;;;;;;1.48;1.38;;;21.80;64.80;;;;;;3144432;28;20044;-87
2021/08/28 02:40:35;;;;;;;1.42;1.23;;;21.80;64.80;;;;;;3144151;28;20576;-87
2021/08/28 02:42:07;;;;;;;1.30;1.20;;;21.80;64.90;;;;;;3145874;28;20500;-86
2021/08/28 02:43:38;;;;;;;1.65;1.40;;;21.80;64.90;;;;;;3146061;28;20044;-86
2021/08/28 02:45:13;;;;;;;1.33;1.23;;;21.80;64.80;;;;;;3144476;28;20060;-87
2021/08/28 02:46:46;;;;;;;1.55;1.40;;;21.80;64.90;;;;;;3145612;28;20064;-86
2021/08/28 02:48:18;;;;;;;1.42;1.25;;;21.80;64.90;;;;;;3144627;28;20048;-87
2021/08/28 02:49:49;;;;;;;1.40;1.20;;;21.70;64.80;;;;;;3144566;28;20245;-86
2021/08/28 02:51:21;;;;;;;1.48;1.38;;;21.70;64.80;;;;;;3143444;28;20063;-86
2021/08/28 02:52:53;;;;;;;1.55;1.38;;;21.70;64.90;;;;;;3144610;28;20098;-87
2021/08/28 02:54:25;;;;;;;1.52;1.30;;;21.70;64.90;;;;;;3145103;28;20053;-87
2021/08/28 02:55:56;;;;;;;1.80;1.30;;;21.80;64.90;;;;;;3146345;28;20060;-86
2021/08/28 02:57:28;;;;;;;1.52;1.33;;;21.70;64.90;;;;;;3146718;28;20053;-87
2021/08/28 02:59:00;;;;;;;1.40;1.30;;;21.70;64.90;;;;;;3146614;28;20048;-86
2021/08/28 03:00:32;;;;;;;1.50;1.40;;;21.70;64.90;;;;;;3145628;28;20045;-87
2021/08/28 03:02:05;;;;;;;1.20;1.10;;;21.70;64.80;;;;;;3146547;28;20056;-86
2021/08/28 03:03:37;;;;;;;1.40;1.30;;;21.70;65.50;;;;;;3146664;28;20049;-87
2021/08/28 03:05:10;;;;;;;1.48;1.30;;;21.70;64.90;;;;;;3146268;28;20056;-86
2021/08/28 03:06:42;;;;;;;1.38;1.20;;;21.70;64.80;;;;;;3146643;28;20052;-86
2021/08/28 03:08:14;;;;;;;2.03;1.42;;;21.70;64.80;;;;;;3146543;28;20048;-87
2021/08/28 03:09:46;;;;;;;1.30;1.20;;;21.70;64.80;;;;;;3146815;28;20052;-86
2021/08/28 03:11:17;;;;;;;1.40;1.30;;;21.70;64.90;;;;;;3145659;28;20819;-86
2021/08/28 03:12:49;;;;;;;1.52;1.30;;;21.70;64.90;;;;;;3146705;28;20491;-86
2021/08/28 03:14:21;;;;;;;1.20;1.10;;;21.70;64.90;;;;;;3146736;28;20475;-86
2021/08/28 03:15:53;;;;;;;1.50;1.40;;;21.70;64.80;;;;;;3145229;28;20449;-87
2021/08/28 03:17:26;;;;;;;1.38;1.20;;;21.70;64.80;;;;;;3146850;28;20078;-86
2021/08/28 03:18:58;;;;;;;1.40;1.30;;;21.70;64.80;;;;;;3146200;28;20118;-86
2021/08/28 03:20:30;;;;;;;1.50;1.40;;;21.70;64.90;;;;;;3145301;28;20045;-86
2021/08/28 03:22:02;;;;;;;1.45;1.35;;;21.70;64.90;;;;;;3146498;28;20044;-86
2021/08/28 03:23:33;;;;;;;1.40;1.30;;;21.70;65.50;;;;;;3146843;28;20071;-86
2021/08/28 03:25:05;;;;;;;1.42;1.30;;;21.70;64.90;;;;;;3145547;28;20036;-86
2021/08/28 03:26:37;;;;;;;;;;;21.70;64.90;;;;;;3146958;28;20049;-86
2021/08/28 03:28:08;;;;;;;1.60;1.40;;;21.70;64.80;;;;;;3146351;28;19928;-86
2021/08/28 03:29:40;;;;;;;1.25;1.15;;;21.70;64.80;;;;;;3146123;28;20418;-87
2021/08/28 03:31:12;;;;;;;1.30;1.20;;;21.70;64.90;;;;;;3144992;28;20060;-86
2021/08/28 03:32:45;;;;;;;1.30;1.20;;;21.60;64.80;;;;;;3146565;28;20379;-86
2021/08/28 03:34:17;;;;;;;1.45;1.35;;;21.60;64.80;;;;;;3146834;28;20049;-86
2021/08/28 03:35:50;;;;;;;1.67;1.35;;;21.70;64.90;;;;;;3145645;28;20095;-86
2021/08/28 03:37:22;;;;;;;1.20;1.10;;;21.70;64.90;;;;;;3146575;28;20044;-86
2021/08/28 03:38:53;;;;;;;1.40;1.30;;;21.60;64.80;;;;;;3146120;28;20044;-86
2021/08/28 03:40:26;;;;;;;1.45;1.20;;;21.70;64.90;;;;;;3146038;28;20858;-86
2021/08/28 03:41:57;;;;;;;1.30;1.13;;;21.60;64.90;;;;;;3146142;28;20215;-86
2021/08/28 03:43:29;;;;;;;1.42;1.20;;;21.60;64.90;;;;;;3146413;28;20044;-86
2021/08/28 03:45:04;;;;;;;2.20;1.38;;;21.60;64.90;;;;;;3145149;28;20052;-86
2021/08/28 03:46:36;;;;;;;2.00;1.40;;;21.60;64.90;;;;;;3146003;28;20045;-87
2021/08/28 03:48:09;;;;;;;1.33;1.23;;;21.60;64.90;;;;;;3146163;28;20036;-86
2021/08/28 03:49:41;;;;;;;1.40;1.30;;;21.60;64.90;;;;;;3146193;28;20106;-87
2021/08/28 03:51:13;;;;;;;1.45;1.35;;;21.60;64.90;;;;;;3145131;28;20094;-86
2021/08/28 03:52:44;;;;;;;1.35;1.13;;;21.70;64.90;;;;;;3146648;28;20059;-86
2021/08/28 03:54:16;;;;;;;1.02;0.98;;;21.70;64.50;;;;;;3146356;28;20049;-87
2021/08/28 03:55:48;;;;;;;1.20;1.10;;;21.70;64.60;;;;;;3145599;28;20052;-86
2021/08/28 03:57:20;;;;;;;2.00;1.20;;;21.80;64.50;;;;;;3146407;28;20479;-87
2021/08/28 03:58:51;;;;;;;1.40;1.20;;;21.90;64.20;;;;;;3146286;28;20055;-86
2021/08/28 04:00:23;;;;;;;1.23;1.13;;;22.00;63.90;;;;;;3144729;28;20523;-86
2021/08/28 04:01:55;;;;;;;1.30;1.10;;;22.10;63.60;;;;;;3146116;28;20056;-85
2021/08/28 04:03:28;;;;;;;1.25;1.15;;;22.20;63.50;;;;;;3146400;28;20453;-86
2021/08/28 04:05:00;;;;;;;1.35;1.05;;;22.20;63.10;;;;;;3145512;28;20052;-86
2021/08/28 04:06:31;;;;;;;1.30;1.00;;;22.40;62.80;;;;;;3145612;28;20402;-86
2021/08/28 04:08:04;;;;;;;1.23;1.10;;;22.50;62.40;;;;;;3145879;28;20102;-86
2021/08/28 04:09:35;;;;;;;1.30;1.20;;;22.60;62.00;;;;;;3146211;28;20511;-86
2021/08/28 04:11:07;;;;;;;1.17;1.08;;;22.70;61.80;;;;;;3145371;28;20047;-86
2021/08/28 04:12:39;;;;;;;1.40;1.30;;;22.80;61.60;;;;;;3146065;28;20400;-87
2021/08/28 04:14:11;;;;;;;1.30;1.20;;;22.80;61.40;;;;;;3146006;28;20041;-86
2021/08/28 04:15:42;;;;;;;1.23;1.13;;;22.90;61.30;;;;;;3144886;28;20629;-86
2021/08/28 04:17:14;;;;;;;1.23;1.13;;;22.90;61.00;;;;;;3146190;28;20060;-86
2021/08/28 04:18:47;;;;;;;1.30;1.20;;;23.00;61.00;;;;;;3145673;28;20226;-87
2021/08/28 04:20:19;;;;;;;1.40;1.20;;;23.10;60.80;;;;;;3137373;28;20045;-87
2021/08/28 04:21:51;;;;;;;1.17;1.08;;;23.10;60.70;;;;;;3145865;28;20480;-86
2021/08/28 04:23:22;;;;;;;1.20;1.10;;;23.20;60.50;;;;;;3146030;28;20153;-86
2021/08/28 04:24:54;;;;;;;0.90;0.90;;;23.20;60.40;;;;;;3145288;28;20048;-86
2021/08/28 04:26:26;;;;;;;1.30;1.20;;;23.30;60.20;;;;;;3145819;28;20060;-86
2021/08/28 04:27:59;;;;;;;1.77;1.20;;;23.30;60.20;;;;;;3145852;28;20114;-86
2021/08/28 04:29:31;;;;;;;1.33;1.10;;;23.40;60.10;;;;;;3145390;28;20131;-86
2021/08/28 04:31:02;;;;;;;1.30;1.20;;;23.40;60.00;;;;;;3143894;28;20055;-86
2021/08/28 04:32:34;;;;;;;1.27;1.17;;;23.40;60.00;;;;;;3145939;28;20104;-87
2021/08/28 04:34:07;;;;;;;1.15;1.05;;;23.40;59.90;;;;;;3145917;28;20052;-86
2021/08/28 04:35:39;;;;;;;1.00;0.90;;;23.50;59.90;;;;;;3144754;28;20048;-87
2021/08/28 04:37:11;;;;;;;1.20;1.10;;;23.50;59.80;;;;;;3145773;28;20106;-87
2021/08/28 04:38:42;;;;;;;0.98;0.90;;;23.50;59.80;;;;;;3145822;28;20044;-86
2021/08/28 04:40:14;;;;;;;1.10;1.00;;;23.50;59.80;;;;;;3144551;28;20048;-86
2021/08/28 04:41:46;;;;;;;1.60;1.10;;;23.50;59.80;;;;;;3145504;28;20419;-86
2021/08/28 04:43:18;;;;;;;1.45;1.33;;;23.50;59.90;;;;;;3145765;28;20498;-86
2021/08/28 04:44:53;;;;;;;1.20;1.10;;;23.50;59.90;;;;;;3145832;28;20099;-86
2021/08/28 04:46:25;;;;;;;1.00;0.90;;;23.50;59.80;;;;;;3144701;28;20051;-86
2021/08/28 04:47:57;;;;;;;1.25;1.02;;;23.50;59.90;;;;;;3145860;28;20097;-86
2021/08/28 04:49:30;;;;;;;1.08;0.98;;;23.50;59.90;;;;;;3145530;28;20036;-87
2021/08/28 04:51:02;;;;;;;1.00;0.90;;;23.50;59.90;;;;;;3145048;28;20268;-87
2021/08/28 04:52:33;;;;;;;1.40;1.30;;;23.50;60.10;;;;;;3145643;28;20443;-87
2021/08/28 04:54:05;;;;;;;1.17;0.88;;;23.40;60.10;;;;;;3145655;28;20438;-87
2021/08/28 04:55:37;;;;;;;1.02;0.90;;;23.40;60.00;;;;;;3145437;28;20052;-87
2021/08/28 04:57:09;;;;;;;1.48;1.10;;;23.50;60.10;;;;;;3145790;28;20053;-86
2021/08/28 04:58:39;;;;;;;1.40;1.30;;;23.40;60.00;;;;;;3145472;28;20056;-87
2021/08/28 05:00:12;;;;;;;1.20;1.10;;;23.50;60.00;;;;;;3144431;28;20216;-86
2021/08/28 05:01:44;;;;;;;;;;;23.40;60.00;;;;;;3145980;28;20560;-87
2021/08/28 07:38:29;;;;;;;1.30;1.20;;;23.20;61.60;;;;;;3146829;28;20262;-89
2021/08/28 07:40:01;;;;;;;1.23;1.13;;;23.20;61.60;;;;;;3145793;28;20491;-89
2021/08/28 07:41:43;;;;;;;0.90;0.90;;;23.20;61.60;;;;;;3145568;28;20079;-90
2021/08/28 07:43:15;;;;;;;1.20;1.10;;;23.20;61.50;;;;;;3146634;28;20114;-90
2021/08/28 07:44:46;;;;;;;1.17;1.08;;;23.20;61.50;;;;;;3146882;28;20061;-90
2021/08/28 07:46:18;;;;;;;1.10;1.00;;;23.20;61.60;;;;;;3145580;28;20052;-90
2021/08/28 07:47:50;;;;;;;1.20;1.10;;;23.20;61.60;;;;;;3147036;28;20071;-90
2021/08/28 07:49:22;;;;;;;1.05;1.00;;;23.20;61.40;;;;;;3146746;28;20465;-90
2021/08/28 07:50:54;;;;;;;1.00;0.93;;;23.20;61.30;;;;;;3146327;28;20044;-89
2021/08/28 07:52:26;;;;;;;1.10;1.00;;;23.20;61.40;;;;;;3146890;28;20075;-88
2021/08/28 07:53:59;;;;;;;1.10;1.00;;;23.20;61.40;;;;;;3147222;28;20061;-90
2021/08/28 07:55:31;;;;;;;1.30;1.20;;;23.20;61.20;;;;;;3145881;28;20071;-90
2021/08/28 07:57:03;;;;;;;1.10;1.00;;;23.20;61.20;;;;;;3146682;28;20049;-90
2021/08/28 07:58:37;;;;;;;1.15;1.05;;;23.20;61.30;;;;;;3146217;28;20491;-91
2021/08/28 08:00:11;;;;;;;1.13;1.02;;;23.20;61.40;;;;;;3144939;28;20424;-90
2021/08/28 08:01:43;;;;;;;1.00;0.90;;;23.20;61.30;;;;;;3146439;28;20048;-90
2021/08/28 08:03:15;;;;;;;1.05;1.00;;;23.20;61.20;;;;;;3146466;28;20044;-90
2021/08/28 08:04:47;;;;;;;1.15;1.05;;;23.20;61.30;;;;;;3146633;28;20048;-90
2021/08/28 08:06:19;;;;;;;1.20;1.10;;;23.20;61.20;;;;;;3145591;28;20522;-90
2021/08/28 08:07:52;;;;;;;1.30;1.20;;;23.20;61.30;;;;;;3146470;28;20053;-90
2021/08/28 08:09:25;;;;;;;1.10;1.00;;;23.20;61.30;;;;;;3145956;28;20059;-91
2021/08/28 08:10:57;;;;;;;1.30;1.20;;;23.20;61.40;;;;;;3144843;28;20044;-89
2021/08/28 08:12:29;;;;;;;1.23;1.13;;;23.20;61.20;;;;;;3146434;28;20053;-88
2021/08/28 08:14:00;;;;;;;1.15;1.05;;;23.20;61.20;;;;;;3146348;28;20052;-90
2021/08/28 08:15:32;;;;;;;1.23;1.13;;;23.20;61.20;;;;;;3144687;28;20049;-89
2021/08/28 08:17:03;;;;;;;1.30;1.20;;;23.20;61.40;;;;;;3146196;28;20044;-90
2021/08/28 08:18:35;;;;;;;1.23;1.13;;;23.20;61.20;;;;;;3146037;28;20040;-88
2021/08/28 08:20:08;;;;;;;0.90;0.90;;;23.20;61.30;;;;;;3145399;28;20041;-90
2021/08/28 08:21:39;;;;;;;0.90;0.90;;;23.20;61.40;;;;;;3146566;28;20083;-90
2021/08/28 08:23:11;;;;;;;1.27;1.17;;;23.20;61.60;;;;;;3146088;28;20537;-88
2021/08/28 08:24:44;;;;;;;1.30;1.20;;;23.10;61.60;;;;;;3146409;28;20296;-90
2021/08/28 08:26:16;;;;;;;1.08;0.98;;;23.20;61.50;;;;;;3144909;28;20049;-89
2021/08/28 08:27:48;;;;;;;1.63;1.30;;;23.20;61.50;;;;;;3146605;28;20392;-89
2021/08/28 08:29:20;;;;;;;1.30;1.20;;;23.10;61.70;;;;;;3145610;28;20103;-90
2021/08/28 08:30:51;;;;;;;1.05;1.00;;;23.10;61.90;;;;;;3144154;28;20048;-89
2021/08/28 08:32:23;;;;;;;1.25;1.13;;;23.10;61.70;;;;;;3146197;28;20083;-89
2021/08/28 08:33:55;;;;;;;1.25;1.15;;;23.10;62.10;;;;;;3146349;28;20048;-89
2021/08/28 08:35:27;;;;;;;1.20;1.10;;;23.10;61.90;;;;;;3145561;28;20044;-90
2021/08/28 08:36:58;;;;;;;1.30;1.10;;;23.10;61.60;;;;;;3146063;28;20064;-90
2021/08/28 08:38:30;;;;;;;1.20;1.10;;;23.20;61.60;;;;;;3145647;28;20062;-89
2021/08/28 08:40:04;;;;;;;1.48;1.35;;;23.10;61.50;;;;;;3145423;28;20044;-90
2021/08/28 08:41:35;;;;;;;1.10;1.00;;;23.10;61.70;;;;;;3145995;28;20064;-90
2021/08/28 08:43:08;;;;;;;1.38;1.20;;;23.10;61.60;;;;;;3145756;28;20096;-90
2021/08/28 08:44:40;;;;;;;1.10;1.00;;;23.10;61.80;;;;;;3146045;28;20491;-90
2021/08/28 08:46:12;;;;;;;1.23;1.13;;;23.00;62.00;;;;;;3144662;28;20509;-89
2021/08/28 08:47:43;;;;;;;1.10;1.00;;;23.00;62.00;;;;;;3146211;28;20048;-89
2021/08/28 08:49:15;;;;;;;1.30;1.20;;;23.00;62.30;;;;;;3143404;28;20059;-91
2021/08/28 08:50:47;;;;;;;1.23;1.13;;;23.00;62.40;;;;;;3144929;28;20056;-89
2021/08/28 08:52:19;;;;;;;1.20;1.10;;;23.00;62.50;;;;;;3133407;28;20550;-88
2021/08/28 08:53:51;;;;;;;1.40;1.20;;;23.00;62.60;;;;;;3133404;28;20103;-89
2021/08/28 08:55:24;;;;;;;1.40;1.30;;;22.90;62.50;;;;;;3133067;28;20507;-89
2021/08/28 08:56:56;;;;;;;1.40;1.30;;;23.00;62.40;;;;;;3133392;28;20049;-90
2021/08/28 08:58:28;;;;;;;1.20;1.10;;;23.00;62.20;;;;;;3132684;28;20049;-90
2021/08/28 08:59:59;;;;;;;1.08;1.00;;;23.10;62.10;;;;;;3132858;28;20120;-89
2021/08/28 09:01:31;;;;;;;1.10;1.00;;;23.10;62.00;;;;;;3132382;28;20052;-88
2021/08/28 09:03:03;;;;;;;1.20;1.10;;;23.20;61.80;;;;;;3133573;28;20091;-90
2021/08/28 09:04:35;;;;;;;1.15;1.05;;;23.20;61.60;;;;;;3133271;28;20119;-90
2021/08/28 09:06:08;;;;;;;1.30;1.20;;;23.20;61.50;;;;;;3132378;28;20115;-90
2021/08/28 09:07:39;;;;;;;1.10;1.00;;;23.30;61.50;;;;;;3133939;28;20177;-90
2021/08/28 09:09:11;;;;;;;1.27;1.17;;;23.30;61.10;;;;;;3133159;28;20466;-90
2021/08/28 09:10:44;;;;;;;1.38;1.27;;;23.40;61.00;;;;;;3132827;28;20491;-90
2021/08/28 09:12:16;;;;;;;1.30;1.20;;;23.40;61.00;;;;;;3133222;28;20052;-90
2021/08/28 09:13:48;;;;;;;1.20;1.10;;;23.40;61.20;;;;;;3133500;28;20045;-89
2021/08/28 09:15:19;;;;;;;1.25;1.15;;;23.40;60.90;;;;;;3131839;28;20447;-89
2021/08/28 09:16:51;;;;;;;1.02;1.00;;;23.40;61.00;;;;;;3133307;28;20377;-90
2021/08/28 09:18:23;;;;;;;1.47;1.33;;;23.40;61.20;;;;;;3133020;28;20052;-90
2021/08/28 09:19:55;;;;;;;1.25;1.15;;;23.30;61.10;;;;;;3143332;28;20048;-90
2021/08/28 09:21:33;;;;;;;1.27;1.17;;;23.40;61.10;;;;;;3145061;28;20051;-90
2021/08/28 09:23:05;;;;;;;1.20;1.10;;;23.40;61.00;;;;;;3145525;28;20056;-89
2021/08/28 09:24:44;;;;;;;1.35;1.25;;;23.40;61.10;;;;;;3145787;28;20060;-89
2021/08/28 09:26:27;;;;;;;1.40;1.30;;;23.40;61.10;;;;;;3135832;28;20052;-91
2021/08/28 09:27:58;;;;;;;1.42;1.20;;;23.40;61.30;;;;;;3145629;28;20052;-90
2021/08/28 09:29:30;;;;;;;1.30;1.20;;;23.40;61.10;;;;;;3145358;28;20048;-91
2021/08/28 09:31:03;;;;;;;1.40;1.25;;;23.40;61.10;;;;;;3143904;28;20045;-89
2021/08/28 09:32:35;;;;;;;1.42;1.33;;;23.40;61.30;;;;;;3146131;28;20470;-91
2021/08/28 09:34:21;;;;;;;1.30;1.20;;;23.30;61.40;;;;;;3145740;28;20657;-91
2021/08/28 09:35:53;;;;;;;1.23;1.13;;;23.30;61.30;;;;;;3145022;28;20048;-90
2021/08/28 09:37:29;;;;;;;1.35;1.25;;;23.30;61.60;;;;;;3145554;28;20052;-91
2021/08/28 09:39:00;;;;;;;1.20;1.10;;;23.20;61.70;;;;;;3145891;28;20063;-91
2021/08/28 09:40:33;;;;;;;1.40;1.30;;;23.30;61.70;;;;;;3144672;28;20525;-90
2021/08/28 09:42:06;;;;;;;1.33;1.23;;;23.30;61.70;;;;;;3146032;28;20060;-91
2021/08/28 09:43:38;;;;;;;1.30;1.20;;;23.30;61.60;;;;;;3146024;28;20106;-91
2021/08/28 09:45:10;;;;;;;1.20;1.10;;;23.30;61.50;;;;;;3144055;28;20491;-90
2021/08/28 09:46:42;;;;;;;1.20;1.10;;;23.30;61.80;;;;;;3146478;28;20506;-91
2021/08/28 09:48:15;;;;;;;1.30;1.20;;;23.30;61.70;;;;;;3146257;28;20055;-90
2021/08/28 09:49:47;;;;;;;1.30;1.20;;;23.20;61.70;;;;;;3146326;28;20044;-91
2021/08/28 09:51:19;;;;;;;1.35;1.25;;;23.20;61.70;;;;;;3144303;28;20726;-90
2021/08/28 09:52:51;;;;;;;1.58;1.40;;;23.20;61.70;;;;;;3145628;28;20098;-91
2021/08/28 09:54:23;;;;;;;1.10;1.00;;;23.30;61.70;;;;;;3145539;28;20048;-90
2021/08/28 09:55:55;;;;;;;1.40;1.30;;;23.30;61.70;;;;;;3144161;28;20127;-91
2021/08/28 09:57:29;;;;;;;1.58;1.48;;;23.20;61.70;;;;;;3145201;28;20045;-90
2021/08/28 09:59:01;;;;;;;1.20;1.10;;;23.20;62.00;;;;;;3144556;28;20051;-91
2021/08/28 10:00:34;;;;;;;1.30;1.20;;;23.20;61.90;;;;;;3143041;28;20044;-89
2021/08/28 10:02:05;;;;;;;;;;;23.20;62.10;;;;;;3145855;28;20052;-90
2021/08/28 10:03:37;;;;;;;1.38;1.23;;;23.20;62.10;;;;;;3145476;28;20114;-91
2021/08/28 10:05:11;;;;;;;1.30;1.20;;;23.20;62.00;;;;;;3143557;28;20454;-89
2021/08/28 10:06:45;;;;;;;1.45;1.30;;;23.20;62.00;;;;;;3145440;28;20053;-89
2021/08/28 10:08:17;;;;;;;1.20;1.10;;;23.10;62.00;;;;;;3145118;28;20083;-92
2021/08/28 10:09:49;;;;;;;1.42;1.20;;;23.20;62.10;;;;;;3145149;28;20087;-90
2021/08/28 10:11:21;;;;;;;1.40;1.30;;;23.10;62.10;;;;;;3143987;28;20091;-90
2021/08/28 10:12:54;;;;;;;1.08;1.05;;;23.10;62.10;;;;;;3145572;28;20329;-88
2021/08/28 10:14:26;;;;;;;1.40;1.30;;;23.10;63.00;;;;;;3145271;28;20059;-89
2021/08/28 10:15:58;;;;;;;1.23;1.13;;;23.10;62.10;;;;;;3143238;28;20055;-90
2021/08/28 10:17:30;;;;;;;1.30;1.20;;;23.00;62.30;;;;;;3145378;28;20079;-89
2021/08/28 10:19:02;;;;;;;1.25;1.15;;;23.00;62.50;;;;;;3145217;28;20219;-89
2021/08/28 10:20:34;;;;;;;1.40;1.30;;;23.00;62.60;;;;;;3144082;28;20048;-92
2021/08/28 10:22:06;;;;;;;1.40;1.30;;;23.00;62.60;;;;;;3145279;28;20056;-92
2021/08/28 10:23:38;;;;;;;1.40;1.30;;;23.00;62.70;;;;;;3145296;28;20188;-88
2021/08/28 10:25:12;;;;;;;1.30;1.20;;;22.90;62.80;;;;;;3144794;28;20056;-89
2021/08/28 10:26:44;;;;;;;1.50;1.40;;;22.90;62.80;;;;;;3145277;28;20082;-91
2021/08/28 10:28:17;;;;;;;1.20;1.10;;;22.90;62.70;;;;;;3145351;28;20102;-91
2021/08/28 10:29:49;;;;;;;1.50;1.23;;;22.90;62.80;;;;;;3145380;28;20114;-89
2021/08/28 10:31:21;;;;;;;1.40;1.30;;;22.90;62.90;;;;;;3143499;28;20049;-89
2021/08/28 10:32:53;;;;;;;1.30;1.20;;;22.80;62.90;;;;;;3145301;28;20503;-91
2021/08/28 10:34:25;;;;;;;1.35;1.25;;;22.80;63.00;;;;;;3145420;28;20460;-89
2021/08/28 10:35:57;;;;;;;1.25;1.10;;;22.80;63.00;;;;;;3144697;28;20047;-90
2021/08/28 10:37:28;;;;;;;1.45;1.35;;;22.80;63.00;;;;;;3145341;28;20056;-91